• Join FlightAware (Why Join?)
  • Login
  • US Flag 
07:46PM EDT


 

Airport Tracker/Info


-or-


 

Live Flight TrackerFlight Track Log ✈ TAM3401 ✈ 03-Aug-2013 ✈ SBBE / BEL - SBBR / BSB

Flight Track Log - Related Links

Times and Time Zones

All times are in EDT time to prevent confusion due to time zone crossing. See the TAM3401 flight status page for this flight to view local times or setup timezone preferences in your user account.

Time Position Orientation Groundspeed Altitude Reporting Facility
EDT Latitude Longitude Course Direction KTS MPH feet Rate Location/Type
04:09PM -4.7232 -48.3494 178° South  Level Estimated
04:10PM -4.8246 -48.3456 178° South  Level Estimated
04:11PM -4.9259 -48.3417 178° South  Level Estimated
04:12PM -5.0272 -48.3378 178° South  Level Estimated
04:13PM -5.1286 -48.3340 178° South  Level Estimated
04:14PM -5.2299 -48.3301 178° South  Level Estimated
04:15PM -5.3312 -48.3262 178° South  Level Estimated
04:16PM -5.4326 -48.3224 178° South  Level Estimated
04:17PM -5.5339 -48.3185 178° South  Level Estimated
04:18PM -5.6352 -48.3146 178° South  Level Estimated
04:19PM -5.7365 -48.3108 178° South  Level Estimated
04:20PM -5.8379 -48.3069 178° South  Level Estimated
04:21PM -5.9392 -48.3030 178° South  Level Estimated
04:22PM -6.0405 -48.2991 178° South  Level Estimated
04:23PM -6.1419 -48.2953 178° South  Level Estimated
04:24PM -6.2432 -48.2914 178° South  Level Estimated
04:25PM -6.3445 -48.2875 178° South  Level Estimated
04:26PM -6.4459 -48.2836 178° South  Level Estimated
04:27PM -6.5472 -48.2798 178° South  Level Estimated
04:28PM -6.6485 -48.2759 178° South  Level Estimated
04:29PM -6.7498 -48.2720 178° South  Level Estimated
04:30PM -6.8512 -48.2681 178° South  Level Estimated
04:31PM -6.9525 -48.2642 178° South  Level Estimated
04:32PM -7.0538 -48.2603 178° South  Level Estimated
04:33PM -7.1552 -48.2564 178° South  Level Estimated
04:34PM -7.2565 -48.2525 178° South  Level Estimated
04:35PM -7.3578 -48.2486 178° South  Level Estimated
04:36PM -7.4592 -48.2447 178° South  Level Estimated
04:37PM -7.5605 -48.2408 178° South  Level Estimated
04:38PM -7.6618 -48.2369 178° South  Level Estimated
04:39PM -7.7632 -48.2330 178° South  Level Estimated
04:40PM -7.8645 -48.2291 178° South  Level Estimated
04:41PM -7.9658 -48.2252 178° South  Level Estimated
04:42PM -8.0671 -48.2213 178° South  Level Estimated
04:43PM -8.1685 -48.2174 178° South  Level Estimated
04:44PM -8.2698 -48.2135 178° South  Level Estimated
04:45PM -8.3711 -48.2096 178° South  Level Estimated
04:46PM -8.4725 -48.2057 178° South  Level Estimated
04:47PM -8.5738 -48.2017 178° South  Level Estimated
04:48PM -8.6751 -48.1978 178° South  Level Estimated
04:49PM -8.7765 -48.1939 178° South  Level Estimated
04:50PM -8.8778 -48.1900 178° South  Level Estimated
04:51PM -8.9791 -48.1860 178° South  Level Estimated
04:52PM -9.0804 -48.1821 178° South  Level Estimated
04:53PM -9.1818 -48.1782 178° South  Level Estimated
04:54PM -9.2831 -48.1743 178° South  Level Estimated
04:55PM -9.3844 -48.1703 178° South  Level Estimated
04:56PM -9.4858 -48.1664 178° South  Level Estimated
04:57PM -9.5871 -48.1624 178° South  Level Estimated
04:58PM -9.6884 -48.1585 178° South  Level Estimated
04:59PM -9.7898 -48.1545 178° South  Level Estimated
05:00PM -9.8911 -48.1506 178° South  Level Estimated
05:01PM -9.9924 -48.1466 178° South  Level Estimated
05:02PM -10.0937 -48.1427 178° South  Level Estimated
05:03PM -10.1951 -48.1387 178° South  Level Estimated
05:04PM -10.2964 -48.1348 178° South  Level Estimated
05:05PM -10.3977 -48.1308 178° South  Level Estimated
05:06PM -10.4991 -48.1269 178° South  Level Estimated
05:07PM -10.6004 -48.1229 178° South  Level Estimated
05:08PM -10.7017 -48.1189 178° South  Level Estimated
05:09PM -10.8031 -48.1149 178° South  Level Estimated
05:10PM -10.9044 -48.1110 178° South  Level Estimated
05:11PM -11.0057 -48.1070 178° South  Level Estimated
05:12PM -11.1070 -48.1030 178° South  Level Estimated
05:13PM -11.2084 -48.0990 178° South  Level Estimated
05:14PM -11.3097 -48.0951 178° South  Level Estimated
05:15PM -11.4110 -48.0911 178° South  Level Estimated
05:16PM -11.5124 -48.0871 178° South  Level Estimated
05:17PM -11.6137 -48.0831 178° South  Level Estimated
05:18PM -11.7150 -48.0791 178° South  Level Estimated
05:19PM -11.8163 -48.0751 178° South  Level Estimated
05:20PM -11.9177 -48.0711 178° South  Level Estimated
05:21PM -12.0190 -48.0671 178° South  Level Estimated
05:22PM -12.1203 -48.0631 178° South  Level Estimated
05:23PM -12.2217 -48.0591 178° South  Level Estimated
05:24PM -12.3230 -48.0550 178° South  Level Estimated
05:25PM -12.4243 -48.0510 178° South  Level Estimated
05:26PM -12.5257 -48.0470 178° South  Level Estimated
05:27PM -12.6270 -48.0430 178° South  Level Estimated
05:28PM -12.7283 -48.0390 178° South  Level Estimated
05:29PM -12.8296 -48.0349 178° South  Level Estimated
05:30PM -12.9310 -48.0309 178° South  Level Estimated
05:31PM -13.0323 -48.0269 178° South  Level Estimated
05:32PM -13.1336 -48.0228 178° South  Level Estimated
05:33PM -13.2350 -48.0188 178° South  Level Estimated
05:34PM -13.3363 -48.0147 178° South  Level Estimated
05:35PM -13.4376 -48.0107 178° South  Level Estimated
05:36PM -13.5390 -48.0066 178° South  Level Estimated
05:37PM -13.6403 -48.0026 178° South  Level Estimated
05:38PM -13.7416 -47.9985 178° South  Level Estimated
05:39PM -13.8429 -47.9944 178° South  Level Estimated
05:40PM -13.9443 -47.9904 178° South  Level Estimated
05:41PM -14.0456 -47.9863 178° South  Level Estimated
05:42PM -14.1469 -47.9822 178° South  Level Estimated
05:43PM -14.2483 -47.9782 178° South  Level Estimated
05:44PM -14.3496 -47.9741 178° South  Level Estimated
05:45PM -14.4509 -47.9700 178° South  Level Estimated
05:46PM -14.5523 -47.9659 178° South  Level Estimated
05:47PM -14.6536 -47.9618 178° South  Level Estimated
05:48PM -14.7549 -47.9577 178° South  Level Estimated
05:49PM -14.8562 -47.9536 178° South  Level Estimated
05:50PM -14.9576 -47.9495 178° South  Level Estimated
05:51PM -15.0589 -47.9454 178° South  Level Estimated
05:52PM -15.1602 -47.9413 178° South  Level Estimated
05:53PM -15.2616 -47.9372 178° South  Level Estimated
05:54PM -15.3629 -47.9330 178° South  Level Estimated
05:55PM -15.4642 -47.9289 178° South  Level Estimated
05:56PM -15.5656 -47.9248 178° South  Level Estimated
05:57PM -15.6669 -47.9207 178° South  Level Estimated
05:58PM -15.7682 -47.9165 178° South  Level Estimated
05:59PM -15.8626 -47.9127 178° South  Level Estimated
06:00PM -15.8626 -47.9127 128° Southeast  Level Estimated
06:01PM -15.8626 -47.9127 128° Southeast  Level Estimated
06:02PM -15.8626 -47.9127 128° Southeast  Level Estimated
06:03PM -15.8626 -47.9127 128° Southeast  Level Estimated
06:04PM -15.8626 -47.9127 128° Southeast  Level Estimated
06:05PM -15.8626 -47.9127 128° Southeast  Level Estimated
06:06PM -15.8626 -47.9127 128° Southeast  Level Estimated
06:07PM -15.8626 -47.9127 128° Southeast  Level Estimated
06:08PM -15.8626 -47.9127 128° Southeast  Level Estimated
06:09PM -15.8626 -47.9127 128° Southeast  Level Estimated
06:10PM -15.8626 -47.9127 128° Southeast  Level Estimated
06:11PM -15.8626 -47.9127 128° Southeast  Level Estimated
06:12PM -15.8626 -47.9127 128° Southeast  Level Estimated
06:13PM -15.8626 -47.9127 128° Southeast  Level Estimated
06:14PM -15.8626 -47.9127 128° Southeast  Level Estimated
06:15PM -15.8626 -47.9127 128° Southeast  Level Estimated